Time;durP1;ratioP1;P1;durP2;ratioP2;P2;SDS_P1;SDS_P2;PMS_P1;PMS_P2;Temp;Humidity;BMP_temperature;BMP_pressure;BME280_temperature;BME280_humidity;BME280_pressure;Samples;Min_cycle;Max_cycle;Signal;HPM_P1;HPM_P2
2022/08/15 00:01:16;;;;;;;7.00;6.30;;;;;;;22.96;57.73;97880.13;5026811;28;20117;-81
2022/08/15 00:03:48;;;;;;;6.57;5.97;;;;;;;22.92;58.00;97873.81;5021862;28;20056;-81
2022/08/15 00:06:24;;;;;;;6.73;5.63;;;;;;;22.87;58.16;97884.63;5034782;28;20032;-81
2022/08/15 00:08:53;;;;;;;6.60;6.10;;;;;;;22.82;58.75;97885.53;5013838;28;20049;-81
2022/08/15 00:11:27;;;;;;;6.35;5.85;;;;;;;22.74;58.96;97880.13;5016423;28;20036;-82
2022/08/15 00:13:58;;;;;;;6.93;6.35;;;;;;;22.71;59.30;97873.53;5016334;28;20033;-82
2022/08/15 00:16:24;;;;;;;6.82;6.13;;;;;;;22.63;59.87;97872.34;5030941;28;20392;-81
2022/08/15 00:18:50;;;;;;;7.78;6.22;;;;;;;22.61;60.06;97876.41;4999954;28;20037;-83
2022/08/15 00:21:20;;;;;;;6.85;6.25;;;;;;;22.58;60.37;97877.81;5016522;28;20044;-81
2022/08/15 00:23:47;;;;;;;7.22;6.53;;;;;;;22.54;60.88;97874.16;5016121;28;20059;-81
2022/08/15 00:26:14;;;;;;;7.25;6.55;;;;;;;22.53;61.02;97878.72;4999644;28;20025;-82
2022/08/15 00:28:39;;;;;;;7.10;6.50;;;;;;;22.49;61.42;97876.97;5016174;28;20297;-81
2022/08/15 00:31:08;;;;;;;7.22;6.63;;;;;;;22.45;61.70;97875.94;5012028;28;20061;-83
2022/08/15 00:33:34;;;;;;;7.60;6.90;;;;;;;22.42;62.13;97873.88;4991156;28;20506;-80
2022/08/15 00:36:00;;;;;;;8.98;7.78;;;;;;;22.38;62.61;97866.44;4999004;28;20056;-81
2022/08/15 00:38:28;;;;;;;8.00;7.40;;;;;;;22.41;62.61;97870.41;5025832;28;20033;-80
2022/08/15 00:43:52;;;;;;;7.75;7.10;;;;;;;22.34;63.19;97868.16;5014021;28;20092;-82
2022/08/15 00:46:26;;;;;;;8.00;7.30;;;;;;;22.29;63.71;97862.91;5008648;28;20485;-83
2022/08/15 00:48:52;;;;;;;7.90;7.30;;;;;;;22.24;63.71;97860.38;4988835;28;20057;-82
2022/08/15 00:51:40;;;;;;;8.43;7.18;;;;;;;22.32;63.87;97869.56;5022833;28;20484;-82
2022/08/15 00:54:15;;;;;;;7.72;7.13;;;;;;;22.31;64.22;97859.97;4991459;28;20076;-81
2022/08/15 00:56:46;;;;;;;9.80;7.50;;;;;;;22.27;64.38;97846.41;5004963;28;20029;-81
2022/08/15 00:59:16;;;;;;;8.27;7.57;;;;;;;22.33;64.56;97853.19;5019839;28;20032;-82
2022/08/15 01:01:42;;;;;;;8.23;7.53;;;;;;;22.27;65.08;97843.72;4990930;28;20030;-81
2022/08/15 01:04:12;;;;;;;8.32;7.47;;;;;;;22.29;65.00;97838.88;4998761;28;20110;-79
2022/08/15 01:06:39;;;;;;;8.65;7.43;;;;;;;22.34;65.21;97844.09;5028528;28;20025;-79
2022/08/15 01:09:07;;;;;;;8.10;7.30;;;;;;;22.39;64.96;97838.63;5031290;28;20026;-80
2022/08/15 01:12:02;;;;;;;8.23;7.53;;;;;;;22.53;65.06;97835.16;5018534;28;20379;-80
2022/08/15 01:14:30;;;;;;;8.27;7.47;;;;;;;22.58;64.95;97843.03;4981491;28;20049;-79
2022/08/15 01:16:56;;;;;;;8.43;7.68;;;;;;;22.61;65.23;97837.09;5026451;28;20033;-79
2022/08/15 01:19:46;;;;;;;8.43;7.50;;;;;;;22.76;64.84;97835.13;5040553;28;20033;-80
2022/08/15 01:22:54;;;;;;;8.68;7.82;;;;;;;22.82;64.76;97839.28;5007857;28;20391;-80
2022/08/15 01:25:25;;;;;;;8.30;7.50;;;;;;;22.88;65.06;97829.22;5024962;28;20045;-80
2022/08/15 01:28:21;;;;;;;8.18;7.43;;;;;;;22.94;64.92;97834.16;5035579;28;20108;-79
2022/08/15 01:30:54;;;;;;;7.95;7.25;;;;;;;22.96;64.86;97840.00;5017945;28;20072;-79
2022/08/15 01:33:21;;;;;;;9.80;7.47;;;;;;;22.99;64.65;97829.75;5005318;28;20041;-80
2022/08/15 01:35:48;;;;;;;8.27;7.60;;;;;;;23.05;64.47;97839.25;5024913;28;20383;-80
2022/08/15 01:38:23;;;;;;;7.78;7.15;;;;;;;23.05;64.98;97832.00;5027430;28;20040;-79
2022/08/15 01:41:08;;;;;;;8.40;7.65;;;;;;;23.02;64.90;97823.81;5025045;28;20049;-79
2022/08/15 01:43:40;;;;;;;8.20;7.40;;;;;;;22.98;64.60;97829.00;5022779;28;20052;-79
2022/08/15 01:46:08;;;;;;;7.90;7.30;;;;;;;22.99;64.18;97819.06;5023519;28;20032;-79
2022/08/15 01:48:41;;;;;;;8.05;7.28;;;;;;;22.97;64.00;97822.06;5022724;28;20467;-80
2022/08/15 01:51:10;;;;;;;7.88;7.13;;;;;;;22.92;64.05;97831.00;5043470;28;20028;-79
2022/08/15 01:53:59;;;;;;;7.53;6.80;;;;;;;22.95;63.83;97825.03;5028684;28;20370;-80
2022/08/15 01:56:35;;;;;;;8.00;7.30;;;;;;;22.97;63.59;97830.88;5010623;28;20036;-79
2022/08/15 01:59:02;;;;;;;7.82;7.15;;;;;;;22.89;63.49;97817.44;5044041;28;20387;-80
2022/08/15 02:01:49;;;;;;;8.57;7.32;;;;;;;22.89;63.60;97815.56;5022847;28;20041;-79
2022/08/15 02:04:17;;;;;;;7.70;7.00;;;;;;;22.82;63.89;97805.28;5040993;28;20361;-79
2022/08/15 02:06:44;;;;;;;7.18;6.63;;;;;;;22.79;63.64;97811.25;5024883;28;20034;-79
2022/08/15 02:09:19;;;;;;;7.20;6.63;;;;;;;22.81;64.09;97808.28;5014449;28;20083;-81
2022/08/15 02:11:47;;;;;;;7.63;6.93;;;;;;;22.68;64.41;97808.03;5021108;28;20029;-81
2022/08/15 02:14:13;;;;;;;8.15;7.35;;;;;;;22.63;63.97;97804.69;5026209;28;20029;-80
2022/08/15 02:16:40;;;;;;;7.82;7.22;;;;;;;22.53;64.03;97806.53;5008529;28;20129;-80
2022/08/15 02:19:08;;;;;;;7.55;6.85;;;;;;;22.47;63.84;97799.72;5043047;28;20494;-80
2022/08/15 02:21:37;;;;;;;7.43;6.72;;;;;;;22.32;64.60;97798.16;5016435;28;20061;-80
2022/08/15 02:24:05;;;;;;;7.72;7.03;;;;;;;22.34;64.46;97797.88;5023083;28;20030;-81
2022/08/15 02:26:30;;;;;;;7.28;6.57;;;;;;;22.29;64.27;97790.75;5016680;28;20472;-80
2022/08/15 02:28:56;;;;;;;8.07;7.25;;;;;;;22.30;63.98;97786.19;5022948;28;20029;-81
2022/08/15 02:31:25;;;;;;;7.60;6.90;;;;;;;22.30;64.17;97789.66;5021043;28;20451;-80
2022/08/15 02:33:56;;;;;;;7.80;7.10;;;;;;;22.22;64.31;97782.38;5031208;28;20032;-80
2022/08/15 02:36:23;;;;;;;8.32;7.30;;;;;;;22.20;65.28;97773.84;5010875;28;20069;-79
2022/08/15 02:38:50;;;;;;;8.43;7.47;;;;;;;22.15;64.55;97768.63;5023777;28;20493;-80
2022/08/15 02:41:29;;;;;;;8.38;7.53;;;;;;;22.21;65.12;97786.91;5014372;28;20029;-80
2022/08/15 02:43:55;;;;;;;7.60;7.00;;;;;;;22.14;65.64;97775.06;5011444;28;20061;-80
2022/08/15 02:46:22;;;;;;;8.23;7.40;;;;;;;22.12;65.44;97778.06;5039314;28;20084;-82
2022/08/15 02:48:48;;;;;;;8.10;7.40;;;;;;;22.04;65.92;97770.72;5045063;28;20033;-82
2022/08/15 02:51:15;;;;;;;8.18;7.47;;;;;;;22.03;66.00;97775.31;5038814;28;20146;-82
2022/08/15 02:53:43;;;;;;;7.72;7.13;;;;;;;22.00;66.69;97775.88;5041540;28;20111;-83
2022/08/15 02:56:09;;;;;;;8.40;7.70;;;;;;;22.01;66.25;97777.50;5008471;28;20024;-82
2022/08/15 02:58:36;;;;;;;8.50;7.78;;;;;;;21.99;66.22;97773.53;5008848;28;20112;-82
2022/08/15 03:01:10;;;;;;;8.32;7.63;;;;;;;21.99;67.69;97773.53;5033751;28;20032;-81
2022/08/15 03:03:38;;;;;;;8.80;7.95;;;;;;;22.00;67.58;97781.22;5015128;28;20046;-81
2022/08/15 03:06:09;;;;;;;8.55;7.80;;;;;;;21.93;68.00;97776.31;5013852;28;20030;-82
2022/08/15 03:08:39;;;;;;;9.02;8.13;;;;;;;21.88;68.33;97772.97;5031906;28;20369;-83
2022/08/15 03:11:09;;;;;;;8.85;8.00;;;;;;;21.79;68.50;97770.97;4998247;28;20021;-83
2022/08/15 03:13:40;;;;;;;9.57;8.60;;;;;;;21.80;68.36;97769.13;4995394;28;20376;-83
2022/08/15 03:16:11;;;;;;;9.35;8.55;;;;;;;21.81;68.47;97768.81;5033923;28;20108;-83
2022/08/15 03:18:41;;;;;;;11.48;9.07;;;;;;;21.78;68.90;97773.97;5036105;28;20083;-82
2022/08/15 03:21:10;;;;;;;9.65;8.68;;;;;;;21.72;69.18;97765.28;5017651;28;20044;-83
2022/08/15 03:23:36;;;;;;;9.38;8.48;;;;;;;21.66;69.21;97761.91;5032261;28;20045;-82
2022/08/15 03:26:03;;;;;;;9.50;8.70;;;;;;;21.58;69.56;97751.91;5032362;28;20472;-83
2022/08/15 03:28:31;;;;;;;9.25;8.35;;;;;;;21.52;69.48;97751.22;5017663;28;20161;-82
2022/08/15 03:31:05;;;;;;;9.82;8.73;;;;;;;21.46;69.94;97749.75;5000875;28;20029;-82
2022/08/15 03:33:34;;;;;;;9.23;8.43;;;;;;;21.45;70.13;97744.69;5034779;28;20092;-83
2022/08/15 03:36:00;;;;;;;9.65;8.77;;;;;;;21.37;70.59;97754.19;5000517;28;20037;-83
2022/08/15 03:38:27;;;;;;;9.93;9.02;;;;;;;21.32;71.19;97747.09;5000584;28;20035;-80
2022/08/15 03:40:53;;;;;;;12.68;9.10;;;;;;;21.28;71.81;97747.97;5016942;28;20029;-80
2022/08/15 03:43:29;;;;;;;10.27;9.27;;;;;;;21.26;72.04;97745.59;5000854;28;20113;-80
2022/08/15 03:46:00;;;;;;;9.73;8.90;;;;;;;21.21;72.82;97743.81;5000449;28;20037;-79
2022/08/15 03:48:29;;;;;;;10.15;9.25;;;;;;;21.17;73.30;97740.16;5007281;28;20026;-81
2022/08/15 03:50:56;;;;;;;9.70;8.80;;;;;;;21.14;73.92;97737.31;4996079;28;20037;-82
2022/08/15 03:53:23;;;;;;;13.98;8.60;;;;;;;21.08;74.22;97741.94;5016717;28;20205;-81
2022/08/15 03:55:49;;;;;;;10.38;9.38;;;;;;;21.02;74.52;97732.44;4995130;28;20021;-80
2022/08/15 03:58:16;;;;;;;10.45;9.45;;;;;;;21.03;75.18;97726.81;5016753;28;20029;-82
2022/08/15 04:00:47;;;;;;;11.55;9.50;;;;;;;21.19;74.27;97726.53;4999588;28;20452;-82
2022/08/15 04:03:18;;;;;;;10.07;9.07;;;;;;;21.17;73.65;97724.16;5016804;28;20487;-80
2022/08/15 04:05:50;;;;;;;10.30;9.38;;;;;;;21.05;73.91;97719.31;5029832;28;20033;-80
2022/08/15 04:08:17;;;;;;;11.40;9.20;;;;;;;21.02;73.87;97708.44;5016733;28;20034;-81
2022/08/15 04:10:46;;;;;;;10.77;9.68;;;;;;;20.94;74.23;97705.38;5011462;28;20083;-81
2022/08/15 04:13:12;;;;;;;10.18;9.10;;;;;;;20.99;74.37;97712.50;5021899;28;20379;-81
2022/08/15 04:15:41;;;;;;;11.02;9.52;;;;;;;20.90;74.45;97708.94;5024008;28;20398;-81
2022/08/15 04:18:09;;;;;;;10.90;9.38;;;;;;;20.91;74.69;97711.31;5024460;28;20099;-81
2022/08/15 04:20:35;;;;;;;11.05;10.13;;;;;;;20.88;74.86;97709.25;5026423;28;20048;-81
2022/08/15 04:23:02;;;;;;;14.68;11.23;;;;;;;20.86;74.75;97703.41;5041062;28;20467;-80
2022/08/15 04:25:39;;;;;;;13.65;12.30;;;;;;;20.96;74.55;97707.75;5027520;28;20505;-80
2022/08/15 04:28:06;;;;;;;16.25;13.45;;;;;;;20.97;74.21;97704.78;5007736;28;20044;-80
2022/08/15 04:30:35;;;;;;;13.95;12.48;;;;;;;20.96;74.08;97703.22;5043852;28;20100;-80
2022/08/15 04:33:16;;;;;;;16.15;12.68;;;;;;;20.90;74.29;97699.06;5025547;28;20025;-80
2022/08/15 04:35:48;;;;;;;16.35;13.60;;;;;;;20.79;74.68;97692.28;5027315;28;20079;-80
2022/08/15 04:38:15;;;;;;;15.60;13.57;;;;;;;20.75;74.91;97700.13;5039758;28;20029;-80
2022/08/15 04:40:42;;;;;;;16.95;14.45;;;;;;;20.73;75.06;97701.47;5022571;28;20054;-80
2022/08/15 04:43:08;;;;;;;16.02;13.93;;;;;;;20.63;75.29;97697.91;5027852;28;20036;-80
2022/08/15 04:45:35;;;;;;;16.40;13.02;;;;;;;20.60;76.09;97700.38;5025047;28;20037;-80
2022/08/15 04:48:03;;;;;;;14.38;12.82;;;;;;;20.47;76.96;97697.38;5023023;28;20025;-81
2022/08/15 04:50:31;;;;;;;14.43;12.68;;;;;;;20.46;76.83;97692.38;5026432;28;20032;-80
2022/08/15 04:52:58;;;;;;;20.70;14.73;;;;;;;20.35;77.45;97692.53;5026239;28;20383;-79
2022/08/15 04:55:25;;;;;;;17.15;14.00;;;;;;;20.33;77.69;97702.69;5025614;28;20087;-80
2022/08/15 04:57:52;;;;;;;18.65;15.00;;;;;;;20.30;78.39;97691.81;5027430;28;20136;-81
2022/08/15 05:00:21;;;;;;;17.88;14.90;;;;;;;20.30;78.89;97692.63;5023420;28;20094;-81
2022/08/15 05:03:19;;;;;;;16.15;14.18;;;;;;;20.21;79.90;97689.81;5039631;28;20111;-80
2022/08/15 05:05:48;;;;;;;16.77;14.38;;;;;;;20.19;80.04;97699.19;5031395;28;20048;-81
2022/08/15 05:08:14;;;;;;;15.73;13.50;;;;;;;20.10;80.86;97689.19;5025247;28;20021;-80
2022/08/15 05:10:40;;;;;;;14.50;12.85;;;;;;;20.01;81.60;97690.91;5010062;28;20033;-80
2022/08/15 05:13:16;;;;;;;18.00;13.73;;;;;;;20.03;81.83;97694.06;5025191;28;20040;-80
2022/08/15 05:15:43;;;;;;;16.00;13.82;;;;;;;19.99;82.44;97693.09;5025515;28;20039;-81
2022/08/15 05:18:09;;;;;;;15.00;13.40;;;;;;;19.94;82.85;97691.28;5020021;28;20033;-80
2022/08/15 05:20:35;;;;;;;17.95;14.50;;;;;;;19.94;83.49;97698.50;5044386;28;20482;-80
2022/08/15 05:23:05;;;;;;;22.33;15.32;;;;;;;19.95;83.81;97698.22;5021505;28;20032;-79
2022/08/15 05:25:34;;;;;;;21.15;17.75;;;;;;;19.97;84.19;97700.56;5040924;28;20028;-80
2022/08/15 05:28:01;;;;;;;22.80;17.33;;;;;;;19.98;84.45;97696.81;5022937;28;20033;-80
2022/08/15 05:30:27;;;;;;;22.05;16.02;;;;;;;20.00;84.64;97692.00;5026286;28;20026;-80
2022/08/15 05:33:12;;;;;;;23.23;16.85;;;;;;;20.26;84.06;97696.94;5025891;28;20471;-80
2022/08/15 05:35:41;;;;;;;21.00;16.48;;;;;;;20.36;83.56;97702.09;5027708;28;20390;-80
2022/08/15 05:38:15;;;;;;;17.08;15.27;;;;;;;20.53;82.98;97703.41;5021625;28;20112;-80
2022/08/15 05:41:08;;;;;;;19.00;16.27;;;;;;;20.72;82.02;97703.34;5021214;28;20090;-80
2022/08/15 05:44:16;;;;;;;17.73;15.60;;;;;;;21.04;81.20;97703.63;5038970;28;20077;-80
2022/08/15 05:46:46;;;;;;;18.70;14.00;;;;;;;21.14;80.33;97691.97;4897284;29;20032;-80
2022/08/15 05:49:30;;;;;;;15.13;12.88;;;;;;;21.30;79.58;97695.88;5025023;28;20431;-80
2022/08/15 05:52:09;;;;;;;15.32;13.82;;;;;;;21.44;79.03;97703.09;5026009;28;20025;-79
2022/08/15 05:54:54;;;;;;;18.73;14.07;;;;;;;21.39;78.86;97695.97;5025908;28;20056;-80
2022/08/15 05:57:36;;;;;;;21.70;15.82;;;;;;;21.21;79.45;97698.44;5040563;28;20057;-80
2022/08/15 06:00:09;;;;;;;22.80;18.20;;;;;;;21.45;79.48;97691.31;5019587;28;20076;-80
2022/08/15 06:02:42;;;;;;;31.88;20.10;;;;;;;21.72;78.83;97695.06;5042842;28;20088;-80
2022/08/15 06:05:15;;;;;;;31.48;22.70;;;;;;;21.91;78.71;97700.22;5022582;28;20041;-81
2022/08/15 06:07:46;;;;;;;32.95;23.30;;;;;;;21.88;78.86;97708.84;5026058;28;20060;-80
2022/08/15 06:10:25;;;;;;;31.67;23.75;;;;;;;21.99;78.85;97718.19;5045329;28;20028;-80
2022/08/15 06:13:12;;;;;;;32.97;24.58;;;;;;;21.92;78.71;97713.28;5024718;28;20049;-82
2022/08/15 06:15:59;;;;;;;35.90;24.92;;;;;;;21.84;79.50;97706.00;5043944;28;20021;-82
2022/08/15 06:18:28;;;;;;;37.17;24.10;;;;;;;22.01;78.41;97691.19;5020856;28;20133;-82
2022/08/15 06:21:19;;;;;;;30.52;23.30;;;;;;;22.23;78.27;97698.44;5002074;28;20044;-83
2022/08/15 06:24:08;;;;;;;32.50;24.10;;;;;;;22.31;78.15;97718.28;5009659;28;20510;-82
2022/08/15 06:26:44;;;;;;;31.20;24.92;;;;;;;22.30;77.98;97712.16;5022402;28;20030;-82
2022/08/15 06:29:37;;;;;;;35.63;24.85;;;;;;;22.47;77.56;97721.41;5024242;28;20025;-82
2022/08/15 06:32:11;;;;;;;29.42;24.05;;;;;;;22.42;77.51;97722.28;5008564;28;20511;-83
2022/08/15 06:34:47;;;;;;;29.67;22.70;;;;;;;22.57;77.46;97702.41;5021629;28;20033;-81
2022/08/15 06:37:24;;;;;;;28.10;21.35;;;;;;;22.72;77.69;97697.78;5024850;28;20029;-82
2022/08/15 06:40:13;;;;;;;25.27;21.45;;;;;;;22.78;77.80;97699.19;5018763;28;20034;-80
2022/08/15 06:42:44;;;;;;;30.52;22.20;;;;;;;22.83;77.14;97701.75;5021112;28;20033;-80
2022/08/15 06:45:15;;;;;;;29.60;21.67;;;;;;;22.95;77.02;97701.94;5043083;28;20029;-81
2022/08/15 06:47:41;;;;;;;30.25;24.77;;;;;;;23.04;77.30;97703.88;5005891;28;20440;-81
2022/08/15 06:50:24;;;;;;;35.40;25.60;;;;;;;23.11;76.57;97705.00;5025066;28;20112;-82
2022/08/15 06:53:07;;;;;;;28.80;23.13;;;;;;;23.19;78.46;97700.00;5010233;28;20613;-87
2022/08/15 06:56:00;;;;;;;29.55;19.45;;;;;;;23.29;78.05;97704.28;5034988;28;20041;-85
2022/08/15 06:58:42;;;;;;;29.77;22.73;;;;;;;23.31;79.14;97707.44;5044627;28;20099;-83
2022/08/15 07:01:27;;;;;;;29.40;20.23;;;;;;;23.07;79.68;97708.63;5029774;28;20119;-83
2022/08/15 07:04:05;;;;;;;25.63;18.50;;;;;;;23.08;80.63;97696.81;5027683;28;20049;-85
2022/08/15 07:06:42;;;;;;;22.67;18.10;;;;;;;23.02;80.10;97711.44;5039868;28;20112;-84
2022/08/15 07:09:41;;;;;;;20.95;16.60;;;;;;;23.01;80.74;97707.97;5025589;28;20483;-81
2022/08/15 07:12:26;;;;;;;23.38;19.35;;;;;;;22.95;79.60;97709.22;5008061;28;20111;-82
2022/08/15 07:14:58;;;;;;;30.90;22.50;;;;;;;22.85;79.42;97702.25;5020230;28;20440;-82
2022/08/15 07:17:40;;;;;;;39.08;29.90;;;;;;;22.74;79.01;97700.91;5039163;28;20064;-83
2022/08/15 07:20:08;;;;;;;39.40;28.25;;;;;;;22.64;78.86;97693.94;5026387;28;20111;-83
2022/08/15 07:22:34;;;;;;;36.47;27.83;;;;;;;22.66;78.81;97687.22;5015849;28;20037;-83
2022/08/15 07:25:01;;;;;;;44.65;30.98;;;;;;;22.74;78.90;97700.91;5039257;28;20116;-83
2022/08/15 07:27:32;;;;;;;40.05;28.40;;;;;;;22.65;79.16;97699.00;5024797;28;20041;-82
2022/08/15 07:30:07;;;;;;;44.80;32.58;;;;;;;22.69;78.79;97704.50;5027576;28;20021;-83
2022/08/15 07:32:50;;;;;;;41.95;30.83;;;;;;;22.71;78.81;97706.88;5045606;28;20037;-83
2022/08/15 07:35:19;;;;;;;;;;;;;;;22.64;80.22;97718.81;5006843;28;20522;-83
2022/08/15 07:37:48;;;;;;;37.88;26.05;;;;;;;22.63;80.93;97709.22;5039944;28;19920;-83
2022/08/15 07:40:24;;;;;;;33.53;26.10;;;;;;;22.42;81.34;97698.22;5044902;28;20065;-82
2022/08/15 07:42:51;;;;;;;39.58;28.00;;;;;;;22.51;80.91;97698.28;5027224;28;20076;-82
2022/08/15 07:45:20;;;;;;;38.50;26.35;;;;;;;22.10;81.85;97695.50;5026676;28;20025;-80
2022/08/15 07:48:03;;;;;;;33.78;25.95;;;;;;;22.02;82.31;97692.78;5028183;28;20035;-82
2022/08/15 07:50:43;;;;;;;40.33;27.80;;;;;;;22.35;81.66;97697.88;5043135;28;20108;-83
2022/08/15 07:53:16;;;;;;;41.05;31.25;;;;;;;22.50;81.54;97697.53;5020591;28;20884;-82
2022/08/15 07:56:14;;;;;;;52.45;36.60;;;;;;;22.67;80.66;97696.81;5033796;28;20033;-83
2022/08/15 07:58:41;;;;;;;73.22;46.88;;;;;;;22.97;79.94;97705.09;5028004;28;20087;-82
2022/08/15 08:01:27;;;;;;;66.53;43.28;;;;;;;23.24;79.58;97708.66;5008904;28;20025;-81
2022/08/15 08:04:05;;;;;;;87.45;54.63;;;;;;;23.57;77.98;97704.00;5022815;28;20049;-83
2022/08/15 08:06:33;;;;;;;73.57;50.58;;;;;;;23.98;76.98;97702.78;5007651;28;20523;-82
2022/08/15 08:08:59;;;;;;;126.28;75.63;;;;;;;24.25;74.63;97690.94;5026426;28;20029;-81
2022/08/15 08:11:56;;;;;;;113.47;75.57;;;;;;;24.63;74.90;97694.00;5040270;28;20030;-81
2022/08/15 08:14:28;;;;;;;109.68;72.25;;;;;;;24.84;73.40;97702.19;5002755;28;20099;-81
2022/08/15 08:16:59;;;;;;;105.90;72.93;;;;;;;24.95;72.30;97689.19;5022994;28;20029;-81
2022/08/15 08:19:50;;;;;;;114.30;77.45;;;;;;;24.80;72.05;97688.59;5026092;28;20033;-81
2022/08/15 08:22:38;;;;;;;106.68;68.40;;;;;;;24.82;72.08;97688.28;5024930;28;20368;-83
2022/08/15 08:25:27;;;;;;;77.53;55.78;;;;;;;24.89;71.83;97699.31;5040394;28;20033;-81
2022/08/15 08:28:14;;;;;;;72.60;49.55;;;;;;;25.08;71.33;97693.56;5020365;28;20061;-85
2022/08/15 08:31:16;;;;;;;70.38;46.22;;;;;;;25.31;71.79;97697.84;5023287;28;20088;-84
2022/08/15 08:34:05;;;;;;;72.93;45.10;;;;;;;25.46;71.74;97694.56;5043824;28;20043;-85
2022/08/15 08:36:48;;;;;;;50.60;38.03;;;;;;;25.72;71.37;97699.00;5022000;28;20036;-84
2022/08/15 08:39:48;;;;;;;60.65;37.67;;;;;;;25.77;71.29;97701.50;5004145;28;20029;-84
2022/08/15 08:42:45;;;;;;;48.42;33.88;;;;;;;26.02;69.79;97711.56;5018075;28;20033;-85
2022/08/15 08:45:20;;;;;;;50.53;31.67;;;;;;;26.24;69.78;97713.16;5010247;28;20046;-85
2022/08/15 08:48:07;;;;;;;33.83;25.75;;;;;;;26.50;69.95;97726.34;5017894;28;20029;-85
2022/08/15 08:50:49;;;;;;;29.65;25.15;;;;;;;26.67;69.43;97725.34;5026877;28;20493;-81
2022/08/15 08:53:34;;;;;;;30.42;22.15;;;;;;;26.78;67.78;97731.09;5039007;28;20057;-79
2022/08/15 08:56:17;;;;;;;19.38;17.35;;;;;;;26.72;67.23;97727.06;5038844;28;20037;-82
2022/08/15 08:58:57;;;;;;;29.40;19.33;;;;;;;26.80;67.88;97731.53;5043591;28;20119;-82
2022/08/15 09:01:25;;;;;;;37.20;26.67;;;;;;;26.77;68.47;97740.28;5037874;28;20034;-82
2022/08/15 09:04:03;;;;;;;48.83;33.22;;;;;;;26.92;69.16;97738.91;5041297;28;20380;-81
2022/08/15 09:06:36;;;;;;;59.80;36.33;;;;;;;27.02;68.97;97743.06;5023238;28;20040;-81
2022/08/15 09:09:11;;;;;;;46.67;34.97;;;;;;;26.99;69.52;97732.16;5023040;28;20093;-80
2022/08/15 09:11:40;;;;;;;49.35;35.80;;;;;;;26.89;69.29;97726.09;5021582;28;20030;-83
2022/08/15 09:14:23;;;;;;;42.97;31.15;;;;;;;26.93;69.73;97735.09;5020801;28;20489;-82
2022/08/15 09:16:53;;;;;;;49.85;33.38;;;;;;;26.96;70.17;97738.22;5010437;28;20036;-82
2022/08/15 09:19:27;;;;;;;47.38;36.22;;;;;;;26.98;69.25;97733.28;5003859;28;20386;-83
2022/08/15 09:21:53;;;;;;;50.88;33.47;;;;;;;26.81;69.95;97740.41;5019224;28;20124;-82
2022/08/15 09:24:22;;;;;;;47.72;31.55;;;;;;;26.72;70.27;97724.34;5038274;28;20033;-82
2022/08/15 09:27:16;;;;;;;43.13;30.85;;;;;;;26.67;72.29;97728.03;5003680;28;20395;-83
2022/08/15 09:29:57;;;;;;;40.03;29.40;;;;;;;26.50;72.67;97742.47;4978329;28;20404;-83
2022/08/15 09:32:29;;;;;;;36.15;27.52;;;;;;;26.41;73.59;97733.69;5022002;28;20041;-83
2022/08/15 09:35:07;;;;;;;38.63;28.90;;;;;;;26.37;74.87;97741.66;5018810;28;20032;-82
2022/08/15 09:38:31;;;;;;;40.45;27.83;;;;;;;26.37;83.27;97744.34;5012219;28;20044;-84
2022/08/15 09:41:20;;;;;;;36.45;29.55;;;;;;;26.35;85.30;97743.91;4971867;28;20059;-85
2022/08/15 09:44:00;;;;;;;39.60;29.42;;;;;;;26.57;84.86;97747.31;5033251;28;20111;-83
2022/08/15 09:46:51;;;;;;;40.28;29.23;;;;;;;26.80;86.26;97738.84;5046532;28;20494;-84
2022/08/15 09:49:32;;;;;;;;;;;;;;;27.24;84.92;97746.41;5002504;28;20079;-84
2022/08/15 09:52:18;;;;;;;37.60;26.98;;;;;;;27.65;82.84;97738.41;5046818;28;19913;-83
2022/08/15 09:54:48;;;;;;;27.73;22.80;;;;;;;28.04;78.63;97744.16;5019128;28;20041;-83
2022/08/15 09:57:28;;;;;;;27.48;21.13;;;;;;;28.31;77.45;97733.75;5019012;28;20037;-83
2022/08/15 10:00:00;;;;;;;23.13;20.67;;;;;;;28.78;75.24;97743.00;5003146;28;20033;-83
2022/08/15 10:02:32;;;;;;;22.83;18.75;;;;;;;29.08;71.90;97744.50;5013972;28;20021;-82
2022/08/15 10:04:57;;;;;;;19.90;17.55;;;;;;;29.12;70.39;97745.41;5014667;28;20131;-83
2022/08/15 10:07:45;;;;;;;23.40;16.08;;;;;;;29.26;71.02;97744.13;5018652;28;20087;-83
2022/08/15 10:10:18;;;;;;;19.23;16.25;;;;;;;29.31;70.68;97752.00;5038711;28;20034;-83
2022/08/15 10:13:13;;;;;;;18.02;13.95;;;;;;;29.16;68.70;97759.75;5023230;28;20033;-83
2022/08/15 10:15:43;;;;;;;16.40;14.70;;;;;;;29.07;68.49;97762.66;5017966;28;20042;-82
2022/08/15 10:18:51;;;;;;;19.05;15.40;;;;;;;28.99;67.58;97762.81;5000421;28;20034;-82
2022/08/15 10:21:30;;;;;;;15.65;13.98;;;;;;;29.06;68.28;97757.59;5004149;28;20040;-83
2022/08/15 10:23:55;;;;;;;18.77;15.00;;;;;;;28.67;67.94;97751.97;5026659;28;20535;-82
2022/08/15 10:26:28;;;;;;;17.52;14.02;;;;;;;28.98;67.92;97762.03;5003022;28;20025;-83
2022/08/15 10:29:03;;;;;;;18.65;16.65;;;;;;;28.64;68.01;97762.34;5021828;28;20028;-84
2022/08/15 10:31:50;;;;;;;15.60;14.07;;;;;;;29.06;67.95;97761.09;5019540;28;20029;-82
2022/08/15 10:34:48;;;;;;;22.73;16.20;;;;;;;29.06;68.58;97769.19;5037564;28;20029;-84
2022/08/15 10:37:20;;;;;;;18.55;14.73;;;;;;;29.03;67.40;97763.69;5024727;28;20033;-83
2022/08/15 10:40:12;;;;;;;15.40;12.75;;;;;;;29.62;67.49;97772.00;5026651;28;20068;-81
2022/08/15 10:43:01;;;;;;;15.63;13.93;;;;;;;28.64;69.67;97767.72;5011615;28;20033;-80
2022/08/15 10:45:36;;;;;;;14.70;12.88;;;;;;;28.70;69.83;97773.66;5009641;28;20041;-83
2022/08/15 10:48:21;;;;;;;16.20;14.77;;;;;;;27.96;70.69;97769.34;5012696;28;20036;-80
2022/08/15 10:51:08;;;;;;;16.40;13.57;;;;;;;27.96;71.79;97773.94;5040095;28;20033;-79
2022/08/15 10:53:39;;;;;;;16.42;13.95;;;;;;;28.23;72.03;97761.63;5019240;28;20044;-79
2022/08/15 10:56:16;;;;;;;14.55;13.02;;;;;;;28.63;71.60;97768.88;5018999;28;20033;-79
